Time;durP1;ratioP1;P1;durP2;ratioP2;P2;SDS_P1;SDS_P2;PMS_P1;PMS_P2;Temp;Humidity;BMP_temperature;BMP_pressure;BME280_temperature;BME280_humidity;BME280_pressure;Samples;Min_cycle;Max_cycle;Signal;HPM_P1;HPM_P2
2021/12/04 00:01:11;;;;;;;;;;;;;;;10.23;32.42;99416.50;4456625;32;35402;-74
2021/12/04 00:03:40;;;;;;;;;;;;;;;9.84;34.23;99407.94;4466009;32;34207;-77
2021/12/04 00:06:29;;;;;;;;;;;;;;;10.03;33.68;99402.88;4466692;32;33537;-77
2021/12/04 00:09:03;;;;;;;;;;;;;;;10.11;33.13;99396.06;4456255;32;34270;-76
2021/12/04 00:11:31;;;;;;;;;;;;;;;10.10;33.37;99397.06;4469824;32;35134;-76
2021/12/04 00:13:58;;;;;;;;;;;;;;;10.03;33.47;99394.84;4451395;32;34071;-76
2021/12/04 00:16:26;;;;;;;;;;;;;;;9.94;33.61;99390.22;4466426;32;33912;-76
2021/12/04 00:18:53;;;;;;;;;;;;;;;10.44;31.52;99382.75;4463443;32;34687;-76
2021/12/04 00:21:21;;;;;;;;;;;;;;;10.45;31.96;99387.12;4461720;32;35054;-74
2021/12/04 00:23:48;;;;;;;;;;;;;;;10.30;32.16;99385.66;4465338;32;34241;-75
2021/12/04 00:26:15;;;;;;;;;;;;;;;10.38;31.74;99380.56;4462594;32;33781;-75
2021/12/04 00:28:43;;;;;;;;;;;;;;;10.09;32.58;99377.50;4465331;32;34318;-76
2021/12/04 00:31:12;;;;;;;;;;;;;;;10.05;32.97;99370.69;4467685;32;35026;-77
2021/12/04 00:33:43;;;;;;;;;;;;;;;9.88;33.70;99369.31;4469754;32;33620;-76
2021/12/04 00:36:28;;;;;;;;;;;;;;;10.11;32.64;99372.88;4462300;32;34094;-77
2021/12/04 00:50:00;;;;;;;;;;;;;;;9.92;32.74;99375.25;4463759;32;34211;-76
2021/12/04 00:52:27;;;;;;;;;;;;;;;9.83;33.13;99378.69;4454663;32;34140;-74
2021/12/04 00:55:00;;;;;;;;;;;;;;;10.03;32.24;99368.13;4466603;32;32792;-74
2021/12/04 00:57:28;;;;;;;;;;;;;;;9.90;33.34;99369.22;4449407;32;35251;-74
2021/12/04 00:59:55;;;;;;;;;;;;;;;9.35;34.93;99374.28;4470429;32;35368;-74
2021/12/04 01:02:23;;;;;;;;;;;;;;;9.63;34.43;99372.19;4465093;32;35093;-75
2021/12/04 01:04:50;;;;;;;;;;;;;;;9.57;34.19;99377.03;4465820;32;32211;-75
2021/12/04 01:07:20;;;;;;;;;;;;;;;10.14;32.79;99379.78;4465970;32;34956;-77
2021/12/04 01:09:47;;;;;;;;;;;;;;;10.01;33.65;99383.41;4451652;32;35315;-78
2021/12/04 01:12:16;;;;;;;;;;;;;;;10.24;32.08;99367.38;4470805;32;33507;-78
2021/12/04 01:14:43;;;;;;;;;;;;;;;9.95;32.55;99372.34;4470914;32;33386;-78
2021/12/04 01:17:10;;;;;;;;;;;;;;;10.02;32.48;99378.94;4450324;32;35062;-78
2021/12/04 01:19:38;;;;;;;;;;;;;;;9.96;32.15;99372.25;4458803;32;34578;-78
2021/12/04 01:22:06;;;;;;;;;;;;;;;9.55;32.82;99372.78;4457651;32;33903;-78
2021/12/04 01:24:33;;;;;;;;;;;;;;;9.38;32.98;99371.41;4458898;32;34565;-78
2021/12/04 01:27:00;;;;;;;;;;;;;;;8.93;33.69;99376.53;4468218;32;33789;-77
2021/12/04 01:29:28;;;;;;;;;;;;;;;9.31;32.81;99371.00;4459325;32;34489;-79
2021/12/04 01:31:55;;;;;;;;;;;;;;;9.09;33.71;99366.41;4473561;32;34162;-79
2021/12/04 01:34:23;;;;;;;;;;;;;;;9.06;32.77;99363.97;4479143;32;32927;-77
2021/12/04 01:36:50;;;;;;;;;;;;;;;8.89;33.21;99374.19;4477090;32;34738;-78
2021/12/04 01:39:19;;;;;;;;;;;;;;;8.91;33.06;99374.94;4451847;32;829759;-78
2021/12/04 01:41:46;;;;;;;;;;;;;;;8.89;33.03;99369.69;4472017;32;34134;-78
2021/12/04 01:44:14;;;;;;;;;;;;;;;8.82;32.75;99355.97;4470757;32;32213;-78
2021/12/04 01:46:42;;;;;;;;;;;;;;;8.86;32.60;99361.94;4447362;32;34105;-78
2021/12/04 01:49:09;;;;;;;;;;;;;;;8.45;33.88;99364.97;4460745;32;34162;-75
2021/12/04 01:51:37;;;;;;;;;;;;;;;8.66;33.87;99365.22;4476496;32;34249;-73
2021/12/04 01:54:04;;;;;;;;;;;;;;;8.81;32.94;99366.75;4459466;32;33225;-74
2021/12/04 01:56:33;;;;;;;;;;;;;;;8.60;34.68;99364.72;4470122;32;34232;-74
2021/12/04 01:59:01;;;;;;;;;;;;;;;8.57;35.03;99361.37;4458450;32;34383;-75
2021/12/04 02:01:31;;;;;;;;;;;;;;;8.76;33.67;99344.87;4471831;32;33993;-76
2021/12/04 02:04:05;;;;;;;;;;;;;;;8.92;33.53;99348.13;4473543;32;34623;-76
2021/12/04 02:06:32;;;;;;;;;;;;;;;9.00;33.23;99345.75;4473904;32;34080;-74
2021/12/04 02:09:00;;;;;;;;;;;;;;;9.13;32.09;99344.84;4465822;32;34342;-76
2021/12/04 02:11:27;;;;;;;;;;;;;;;9.20;32.54;99341.56;4459832;32;33893;-75
2021/12/04 02:13:54;;;;;;;;;;;;;;;9.30;31.99;99337.25;4472793;32;33571;-75
2021/12/04 02:16:22;;;;;;;;;;;;;;;9.48;32.59;99345.69;4473851;32;34872;-76
2021/12/04 02:18:50;;;;;;;;;;;;;;;9.63;31.58;99335.66;4461564;32;35328;-75
2021/12/04 02:21:17;;;;;;;;;;;;;;;9.16;33.78;99329.44;4467917;32;34766;-76
2021/12/04 02:23:45;;;;;;;;;;;;;;;9.65;31.63;99330.16;4459514;32;33543;-75
2021/12/04 02:26:13;;;;;;;;;;;;;;;9.71;32.18;99327.03;4462649;32;33704;-78
2021/12/04 02:28:42;;;;;;;;;;;;;;;9.73;31.73;99323.25;4468163;32;33424;-77
2021/12/04 02:31:09;;;;;;;;;;;;;;;9.84;31.51;99322.41;4469862;32;34207;-75
2021/12/04 02:33:37;;;;;;;;;;;;;;;9.89;31.64;99316.72;4474947;32;32212;-76
2021/12/04 02:36:06;;;;;;;;;;;;;;;9.52;33.37;99320.41;4455320;32;34004;-75
2021/12/04 02:38:34;;;;;;;;;;;;;;;9.67;33.15;99328.25;4454798;32;35658;-77
2021/12/04 02:41:01;;;;;;;;;;;;;;;9.85;32.13;99317.91;4455246;32;34167;-76
2021/12/04 02:43:33;;;;;;;;;;;;;;;9.85;31.61;99320.59;4459069;32;33175;-75
2021/12/04 02:46:00;;;;;;;;;;;;;;;9.86;30.77;99309.78;4467916;32;34222;-75
2021/12/04 02:48:28;;;;;;;;;;;;;;;9.24;32.82;99305.66;4467339;32;35355;-75
2021/12/04 02:50:55;;;;;;;;;;;;;;;9.39;32.99;99297.44;4472224;32;35018;-76
2021/12/04 02:53:23;;;;;;;;;;;;;;;9.76;31.43;99301.66;4454301;32;32166;-77
2021/12/04 02:55:52;;;;;;;;;;;;;;;9.76;31.13;99298.13;4443337;32;34826;-77
2021/12/04 02:58:20;;;;;;;;;;;;;;;9.67;30.89;99306.84;4456753;32;34439;-75
2021/12/04 03:00:50;;;;;;;;;;;;;;;9.66;30.78;99302.47;4468058;32;35336;-75
2021/12/04 03:03:19;;;;;;;;;;;;;;;9.70;30.44;99311.97;4456365;32;32778;-75
2021/12/04 03:05:49;;;;;;;;;;;;;;;9.41;31.20;99306.22;4471891;32;34588;-76
2021/12/04 03:08:21;;;;;;;;;;;;;;;9.23;31.38;99311.12;4446825;32;33967;-76
2021/12/04 03:10:49;;;;;;;;;;;;;;;9.22;31.20;99317.44;4449820;32;34097;-76
2021/12/04 03:13:18;;;;;;;;;;;;;;;8.95;31.74;99307.00;4458301;32;33416;-76
2021/12/04 03:15:49;;;;;;;;;;;;;;;8.91;31.80;99308.22;4460778;32;33719;-76
2021/12/04 03:18:16;;;;;;;;;;;;;;;8.62;32.86;99308.56;4469492;32;35454;-76
2021/12/04 03:20:44;;;;;;;;;;;;;;;8.40;32.60;99318.13;4469351;32;34115;-75
2021/12/04 03:23:18;;;;;;;;;;;;;;;8.23;33.10;99307.81;4473814;32;33244;-76
2021/12/04 03:25:49;;;;;;;;;;;;;;;8.09;33.17;99308.81;4469353;32;33892;-78
2021/12/04 03:28:18;;;;;;;;;;;;;;;8.24;32.64;99309.50;4471508;32;34587;-79
2021/12/04 03:30:51;;;;;;;;;;;;;;;8.14;32.83;99305.78;4476344;32;35019;-78
2021/12/04 03:41:17;;;;;;;;;;;;;;;8.12;32.84;99273.06;4456238;32;33336;-80
2021/12/04 03:43:45;;;;;;;;;;;;;;;8.20;32.68;99259.19;4472695;32;33629;-80
2021/12/04 03:46:16;;;;;;;;;;;;;;;8.08;33.15;99256.44;4455109;32;33994;-79
2021/12/04 03:51:11;;;;;;;;;;;;;;;7.98;33.24;99254.56;4469978;32;32510;-77
2021/12/04 03:53:39;;;;;;;;;;;;;;;7.89;33.50;99250.72;4468733;32;33820;-77
2021/12/04 03:56:06;;;;;;;;;;;;;;;7.76;34.08;99249.91;4463862;32;34106;-78
2021/12/04 03:58:34;;;;;;;;;;;;;;;7.87;33.36;99252.66;4464010;32;35397;-77
2021/12/04 04:01:01;;;;;;;;;;;;;;;7.85;33.87;99250.09;4477727;32;34245;-76
2021/12/04 04:03:29;;;;;;;;;;;;;;;7.85;33.34;99250.09;4469333;32;32062;-78
2021/12/04 04:05:56;;;;;;;;;;;;;;;7.71;33.68;99250.25;4468983;32;35108;-79
2021/12/04 04:08:23;;;;;;;;;;;;;;;7.89;33.40;99240.06;4472396;32;34256;-77
2021/12/04 04:10:54;;;;;;;;;;;;;;;7.78;33.48;99246.16;4472445;32;34295;-76
2021/12/04 04:13:21;;;;;;;;;;;;;;;8.14;32.73;99244.47;4478101;32;34223;-77
2021/12/04 04:15:49;;;;;;;;;;;;;;;8.26;32.41;99240.09;4474692;32;33903;-79
2021/12/04 04:18:16;;;;;;;;;;;;;;;8.10;33.26;99232.34;4469754;32;34396;-80
2021/12/04 04:20:44;;;;;;;;;;;;;;;7.99;32.80;99234.94;4474292;32;34255;-78
2021/12/04 04:23:11;;;;;;;;;;;;;;;7.67;34.57;99233.63;4474348;32;32984;-81
2021/12/04 04:25:38;;;;;;;;;;;;;;;7.65;35.48;99232.88;4463063;32;34069;-83
2021/12/04 04:28:06;;;;;;;;;;;;;;;8.40;32.99;99238.13;4459833;32;32773;-82
2021/12/04 04:30:33;;;;;;;;;;;;;;;8.58;32.21;99232.41;4448957;32;34146;-83
2021/12/04 04:33:02;;;;;;;;;;;;;;;8.35;34.79;99236.75;4442758;32;31977;-83
2021/12/04 04:35:31;;;;;;;;;;;;;;;8.46;33.82;99243.97;4460608;32;32471;-83
2021/12/04 04:57:37;;;;;;;;;;;;;;;9.20;31.87;99248.13;4453835;32;35430;-81
2021/12/04 05:10:16;;;;;;;;;;;;;;;9.25;31.58;99247.78;4460940;32;33027;-76
2021/12/04 05:11:18;;;;;;;;;;;;;;;8.88;31.03;99250.56;4456881;32;35132;-76
2021/12/04 05:13:45;;;;;;;;;;;;;;;8.32;33.50;99242.31;4463970;32;34079;-81
2021/12/04 05:16:17;;;;;;;;;;;;;;;8.58;31.50;99243.06;4459928;32;33373;-77
2021/12/04 05:18:58;;;;;;;;;;;;;;;8.64;30.95;99237.28;4462514;32;32773;-76
2021/12/04 05:21:25;;;;;;;;;;;;;;;8.42;31.36;99238.03;4460470;32;34168;-77
2021/12/04 05:23:54;;;;;;;;;;;;;;;8.28;31.68;99235.47;4457125;32;34162;-76
2021/12/04 05:26:24;;;;;;;;;;;;;;;8.33;32.08;99233.31;4460634;32;31778;-77
2021/12/04 05:28:52;;;;;;;;;;;;;;;8.43;31.84;99225.53;4458523;32;35110;-74
2021/12/04 05:31:20;;;;;;;;;;;;;;;8.23;34.07;99221.63;4460695;32;35000;-74
2021/12/04 05:33:48;;;;;;;;;;;;;;;8.15;34.69;99231.06;4461170;32;35266;-74
2021/12/04 05:36:16;;;;;;;;;;;;;;;8.79;32.13;99232.59;4465330;32;33674;-74
2021/12/04 05:38:43;;;;;;;;;;;;;;;8.72;32.07;99228.69;4456112;32;34086;-74
2021/12/04 05:41:10;;;;;;;;;;;;;;;8.54;32.85;99231.78;4461855;32;32886;-74
2021/12/04 05:43:38;;;;;;;;;;;;;;;7.97;35.27;99231.53;4456158;32;35093;-74
2021/12/04 05:46:14;;;;;;;;;;;;;;;8.60;34.16;99226.00;4459545;32;34237;-75
2021/12/04 05:49:04;;;;;;;;;;;;;;;8.87;32.64;99224.88;4458550;32;32947;-72
2021/12/04 05:56:45;;;;;;;;;;;;;;;9.27;32.00;99217.28;4454214;32;32355;-73
2021/12/04 05:59:12;;;;;;;;;;;;;;;9.50;31.23;99226.22;4461517;32;33886;-75
2021/12/04 06:01:40;;;;;;;;;;;;;;;9.53;31.40;99225.09;4460579;32;34326;-75
2021/12/04 06:04:08;;;;;;;;;;;;;;;9.51;31.50;99219.88;4452999;32;33584;-75
2021/12/04 06:06:35;;;;;;;;;;;;;;;9.75;30.61;99222.41;4457040;32;33427;-75
2021/12/04 06:09:03;;;;;;;;;;;;;;;9.86;29.43;99208.22;4456018;32;35112;-76
2021/12/04 06:11:32;;;;;;;;;;;;;;;9.83;30.14;99212.97;4458289;32;34407;-76
2021/12/04 06:13:59;;;;;;;;;;;;;;;9.36;32.03;99202.38;4458558;32;34189;-75
2021/12/04 06:16:26;;;;;;;;;;;;;;;9.42;31.75;99207.25;4453089;32;33341;-76
2021/12/04 06:18:55;;;;;;;;;;;;;;;9.64;31.10;99209.06;4453120;32;33915;-75
2021/12/04 06:24:08;;;;;;;;;;;;;;;9.85;30.73;99208.31;4460929;32;34191;-73
2021/12/04 06:26:36;;;;;;;;;;;;;;;9.12;32.08;99204.28;4457419;32;33634;-75
2021/12/04 06:29:03;;;;;;;;;;;;;;;9.70;31.00;99213.09;4458038;32;33878;-74
2021/12/04 06:31:32;;;;;;;;;;;;;;;9.80;31.06;99214.91;4457369;32;34290;-74
2021/12/04 06:33:59;;;;;;;;;;;;;;;9.24;32.48;99206.00;4460108;32;34218;-75
2021/12/04 06:36:27;;;;;;;;;;;;;;;9.83;31.58;99207.63;4460139;32;31996;-77
2021/12/04 06:38:54;;;;;;;;;;;;;;;10.84;28.93;99208.19;4457600;32;33975;-71
2021/12/04 06:41:22;;;;;;;;;;;;;;;11.34;27.89;99205.69;4462422;32;32830;-75
2021/12/04 06:43:51;;;;;;;;;;;;;;;11.27;28.75;99196.50;4473685;32;35315;-76
2021/12/04 06:46:19;;;;;;;;;;;;;;;11.40;28.19;99197.12;4469123;32;34215;-75
2021/12/04 06:49:04;;;;;;;;;;;;;;;11.68;26.90;99202.75;4461483;32;34289;-75
2021/12/04 06:51:35;;;;;;;;;;;;;;;11.42;27.98;99197.81;4460312;32;35647;-75
2021/12/04 06:54:06;;;;;;;;;;;;;;;11.51;27.16;99189.97;4476184;32;34103;-75
2021/12/04 06:56:36;;;;;;;;;;;;;;;11.78;27.10;99192.94;4478538;32;33569;-75
2021/12/04 06:59:07;;;;;;;;;;;;;;;12.63;26.29;99185.31;4475477;32;35127;-76
2021/12/04 07:01:35;;;;;;;;;;;;;;;13.03;25.64;99187.81;4478251;32;34408;-76
2021/12/04 07:04:03;;;;;;;;;;;;;;;13.21;25.55;99182.56;4457022;32;32952;-75
2021/12/04 07:06:30;;;;;;;;;;;;;;;13.62;25.20;99186.72;4468421;32;33450;-75
2021/12/04 07:08:58;;;;;;;;;;;;;;;13.54;25.24;99172.31;4451407;32;34889;-76
2021/12/04 07:11:26;;;;;;;;;;;;;;;12.86;27.00;99170.59;4472410;32;33656;-76
2021/12/04 07:13:53;;;;;;;;;;;;;;;12.81;27.35;99172.91;4464706;32;34498;-75
2021/12/04 07:16:23;;;;;;;;;;;;;;;13.24;26.13;99179.59;4466917;32;34248;-75
2021/12/04 07:18:51;;;;;;;;;;;;;;;13.63;25.27;99177.66;4474463;32;33938;-76
2021/12/04 07:21:18;;;;;;;;;;;;;;;13.70;25.14;99169.84;4471898;32;34435;-75
2021/12/04 07:23:46;;;;;;;;;;;;;;;13.40;26.33;99168.25;4472627;32;35061;-74
2021/12/04 07:26:13;;;;;;;;;;;;;;;13.63;26.19;99174.97;4475730;32;33404;-75
2021/12/04 07:28:40;;;;;;;;;;;;;;;14.46;24.53;99158.75;4473665;32;33906;-75
2021/12/04 07:31:08;;;;;;;;;;;;;;;15.58;23.41;99144.59;4468770;32;34283;-75
2021/12/04 07:33:36;;;;;;;;;;;;;;;15.96;23.32;99132.47;4455296;32;34154;-75
2021/12/04 07:36:04;;;;;;;;;;;;;;;16.33;23.13;99138.44;4467763;32;32192;-75
2021/12/04 07:38:32;;;;;;;;;;;;;;;17.10;21.41;99136.28;4468517;32;34056;-76
2021/12/04 07:41:03;;;;;;;;;;;;;;;17.07;21.49;99134.78;4453189;32;35328;-76
2021/12/04 07:43:30;;;;;;;;;;;;;;;16.39;22.91;99127.81;4457009;32;33799;-77
2021/12/04 07:45:58;;;;;;;;;;;;;;;16.64;21.88;99131.41;4459434;32;33536;-76
2021/12/04 07:48:26;;;;;;;;;;;;;;;16.47;21.71;99119.75;4459281;32;34268;-76
2021/12/04 07:50:53;;;;;;;;;;;;;;;15.93;23.57;99121.16;4462022;32;34489;-76
2021/12/04 07:53:21;;;;;;;;;;;;;;;16.58;22.79;99121.25;4452259;32;35050;-76
2021/12/04 07:55:49;;;;;;;;;;;;;;;16.53;22.68;99124.47;4458048;32;34493;-76
2021/12/04 07:58:16;;;;;;;;;;;;;;;16.53;22.08;99116.37;4458948;32;35262;-76
2021/12/04 08:00:44;;;;;;;;;;;;;;;16.72;21.87;99115.16;4457506;32;35456;-76
2021/12/04 08:03:11;;;;;;;;;;;;;;;16.59;21.92;99130.19;4454559;32;34043;-76
2021/12/04 08:05:42;;;;;;;;;;;;;;;16.36;22.53;99132.72;4461435;32;32527;-76
2021/12/04 08:08:09;;;;;;;;;;;;;;;16.12;23.94;99120.88;4460439;32;34298;-76
2021/12/04 08:10:37;;;;;;;;;;;;;;;16.38;23.58;99126.16;4462134;32;33278;-76
2021/12/04 08:13:04;;;;;;;;;;;;;;;17.26;21.82;99130.00;4455794;32;34963;-76
2021/12/04 08:15:32;;;;;;;;;;;;;;;17.83;21.07;99125.28;4459418;32;34081;-76
2021/12/04 08:17:59;;;;;;;;;;;;;;;17.79;20.90;99129.38;4456177;32;33947;-75
2021/12/04 08:20:27;;;;;;;;;;;;;;;17.64;21.17;99131.91;4451037;32;35299;-76
2021/12/04 08:22:54;;;;;;;;;;;;;;;17.18;22.54;99128.19;4455021;32;33211;-75
2021/12/04 08:25:22;;;;;;;;;;;;;;;16.96;22.50;99124.31;4453925;32;36052;-76
2021/12/04 08:27:50;;;;;;;;;;;;;;;16.62;23.18;99129.88;4460607;32;32856;-75
2021/12/04 08:30:19;;;;;;;;;;;;;;;16.20;24.22;99133.53;4458648;32;34958;-75
2021/12/04 08:32:47;;;;;;;;;;;;;;;16.06;24.47;99130.47;4461185;32;33636;-75
2021/12/04 08:35:15;;;;;;;;;;;;;;;16.06;24.41;99119.66;4455459;32;34514;-75
2021/12/04 08:37:42;;;;;;;;;;;;;;;15.44;24.93;99129.88;4460039;32;32618;-76
2021/12/04 08:40:14;;;;;;;;;;;;;;;16.07;24.35;99132.16;4457815;32;34130;-75
2021/12/04 08:42:45;;;;;;;;;;;;;;;15.94;24.68;99128.25;4478432;32;33946;-75
2021/12/04 08:45:14;;;;;;;;;;;;;;;15.46;25.17;99114.34;4475725;32;32178;-76
2021/12/04 08:47:42;;;;;;;;;;;;;;;15.19;26.17;99123.50;4472888;32;33985;-74
2021/12/04 08:50:11;;;;;;;;;;;;;;;14.94;26.23;99114.41;4473517;32;35325;-75
2021/12/04 08:52:39;;;;;;;;;;;;;;;14.82;26.61;99110.25;4467249;32;34467;-75
2021/12/04 08:55:07;;;;;;;;;;;;;;;14.86;26.67;99109.81;4482280;32;33726;-76
2021/12/04 08:57:35;;;;;;;;;;;;;;;15.01;26.92;99123.53;4461273;32;33926;-75
2021/12/04 09:00:05;;;;;;;;;;;;;;;15.54;26.17;99114.41;4482038;32;34356;-75
2021/12/04 09:02:32;;;;;;;;;;;;;;;15.67;26.20;99116.69;4462099;32;32727;-75
2021/12/04 09:05:00;;;;;;;;;;;;;;;15.80;26.32;99105.44;4474384;32;34380;-75
2021/12/04 09:07:28;;;;;;;;;;;;;;;16.38;25.07;99104.53;4468724;32;35141;-75
2021/12/04 09:09:56;;;;;;;;;;;;;;;16.16;24.64;99100.63;4469355;32;35338;-75
2021/12/04 09:12:25;;;;;;;;;;;;;;;15.68;26.19;99102.19;4463045;32;33990;-76
2021/12/04 09:14:52;;;;;;;;;;;;;;;15.94;25.75;99095.84;4473418;32;33403;-76
2021/12/04 09:17:20;;;;;;;;;;;;;;;14.98;27.14;99096.06;4463703;32;35236;-74
2021/12/04 09:19:47;;;;;;;;;;;;;;;15.47;27.11;99097.16;4474654;32;34334;-75
2021/12/04 09:22:29;;;;;;;;;;;;;;;15.92;26.97;99081.66;4476782;32;34317;-75
2021/12/04 09:25:04;;;;;;;;;;;;;;;15.57;27.35;99087.13;4462950;32;34327;-75
2021/12/04 10:34:36;;;;;;;;;;;;;;;9.01;36.04;98989.75;4466889;32;34359;-73
2021/12/04 10:37:05;;;;;;;;;;;;;;;9.17;35.95;98992.03;4468038;32;33642;-74
2021/12/04 10:39:33;;;;;;;;;;;;;;;9.13;35.78;98982.59;4475257;32;33577;-74
2021/12/04 10:42:04;;;;;;;;;;;;;;;8.81;37.50;98972.66;4472057;32;34203;-74
2021/12/04 10:44:32;;;;;;;;;;;;;;;9.60;37.78;98967.16;4477095;32;34547;-74
2021/12/04 10:47:02;;;;;;;;;;;;;;;9.87;36.49;98958.66;4457127;32;32893;-74
2021/12/04 10:52:31;;;;;;;;;;;;;;;10.14;35.24;98952.78;4469414;32;34185;-74
2021/12/04 10:55:13;;;;;;;;;;;;;;;10.89;33.83;98942.75;4477212;32;34251;-74
2021/12/04 11:00:36;;;;;;;;;;;;;;;8.89;35.24;98941.84;4469294;32;34295;-74
2021/12/04 11:03:23;;;;;;;;;;;;;;;10.18;34.43;98942.69;4471698;32;35253;-74
2021/12/04 11:36:23;;;;;;;;;;;;;;;9.52;34.40;98886.81;4452471;32;33717;-75
2021/12/04 11:44:23;;;;;;;;;;;;;;;8.69;35.73;98874.94;4470954;32;32020;-74
2021/12/04 11:46:54;;;;;;;;;;;;;;;8.89;35.08;98867.97;4468853;32;35074;-74
2021/12/04 11:49:24;;;;;;;;;;;;;;;8.07;36.13;98875.44;4470261;32;32869;-74
2021/12/04 11:51:57;;;;;;;;;;;;;;;8.06;35.99;98866.59;4468870;32;33289;-74
2021/12/04 11:54:26;;;;;;;;;;;;;;;8.26;36.93;98865.00;4467873;32;33174;-74
2021/12/04 11:57:06;;;;;;;;;;;;;;;7.76;38.74;98858.31;4467480;32;34009;-74
2021/12/04 11:59:36;;;;;;;;;;;;;;;7.59;36.73;98857.78;4457608;32;33163;-77
2021/12/04 12:02:04;;;;;;;;;;;;;;;9.07;35.66;98860.28;4454036;32;33627;-76
2021/12/04 12:04:33;;;;;;;;;;;;;;;7.75;38.81;98860.13;4458908;32;32251;-75
2021/12/04 12:07:21;;;;;;;;;;;;;;;8.82;35.51;98853.44;4469294;32;34887;-75
2021/12/04 12:10:00;;;;;;;;;;;;;;;9.18;35.57;98841.56;4452106;32;35215;-76
2021/12/04 12:12:34;;;;;;;;;;;;;;;9.89;33.05;98847.12;4457104;32;34208;-75
2021/12/04 12:15:05;;;;;;;;;;;;;;;9.23;32.59;98846.50;4454940;32;33974;-75
2021/12/04 12:17:34;;;;;;;;;;;;;;;9.37;33.11;98842.69;4475828;32;33890;-74
2021/12/04 12:20:03;;;;;;;;;;;;;;;9.20;33.72;98838.75;4468000;32;33246;-75
2021/12/04 12:22:38;;;;;;;;;;;;;;;8.92;33.09;98837.53;4462173;32;34771;-75
2021/12/04 12:36:04;;;;;;;;;;;;;;;10.00;33.03;98830.97;4474290;32;33441;-74
2021/12/04 12:38:34;;;;;;;;;;;;;;;10.34;32.55;98824.56;4457479;32;34297;-74
2021/12/04 12:41:04;;;;;;;;;;;;;;;10.29;31.83;98822.28;4469512;32;34299;-74
2021/12/04 12:43:33;;;;;;;;;;;;;;;11.63;31.77;98816.34;4467965;32;33165;-75
2021/12/04 12:46:01;;;;;;;;;;;;;;;11.91;30.17;98814.63;4459227;32;34219;-74
2021/12/04 12:48:28;;;;;;;;;;;;;;;11.06;31.57;98810.03;4465541;32;34064;-74
2021/12/04 12:51:05;;;;;;;;;;;;;;;9.91;33.16;98807.72;4467794;32;32507;-75
2021/12/04 12:53:38;;;;;;;;;;;;;;;10.47;32.34;98809.94;4467462;32;32975;-75
2021/12/04 12:56:07;;;;;;;;;;;;;;;11.18;32.54;98809.75;4452215;32;32743;-74
2021/12/04 12:58:50;;;;;;;;;;;;;;;10.98;32.54;98807.19;4467267;32;32432;-74
2021/12/04 13:12:46;;;;;;;;;;;;;;;12.03;30.22;98797.31;4458320;32;33977;-75
2021/12/04 13:15:14;;;;;;;;;;;;;;;11.24;32.02;98803.00;4471784;32;34053;-74
2021/12/04 13:17:42;;;;;;;;;;;;;;;11.66;31.74;98798.13;4466849;32;34883;-74
2021/12/04 13:20:10;;;;;;;;;;;;;;;12.39;30.29;98799.28;4468389;32;35030;-74
2021/12/04 13:22:38;;;;;;;;;;;;;;;12.54;30.70;98797.81;4464236;32;33851;-74
2021/12/04 13:25:07;;;;;;;;;;;;;;;11.21;31.26;98795.25;4468105;32;34103;-74
2021/12/04 13:30:09;;;;;;;;;;;;;;;11.85;30.98;98794.59;4470735;32;34356;-75
2021/12/04 13:32:38;;;;;;;;;;;;;;;11.85;33.92;98799.09;4470420;32;33950;-74
2021/12/04 13:35:24;;;;;;;;;;;;;;;12.15;31.27;98789.13;4451091;32;33559;-75
2021/12/04 13:37:58;;;;;;;;;;;;;;;12.30;31.14;98788.47;4444264;32;33416;-73
2021/12/04 13:40:26;;;;;;;;;;;;;;;12.35;30.82;98772.75;4468308;32;33075;-75
2021/12/04 13:42:53;;;;;;;;;;;;;;;11.50;31.62;98781.81;4470190;32;35010;-75
2021/12/04 13:45:21;;;;;;;;;;;;;;;11.42;32.23;98777.16;4467511;32;34241;-74
2021/12/04 13:47:56;;;;;;;;;;;;;;;10.84;32.72;98770.97;4455950;32;32475;-74
2021/12/04 13:53:04;;;;;;;;;;;;;;;10.36;33.32;98775.28;4474941;32;34356;-74
2021/12/04 13:55:35;;;;;;;;;;;;;;;10.34;33.66;98763.88;4473847;32;33201;-75
2021/12/04 13:58:03;;;;;;;;;;;;;;;9.83;34.83;98754.09;4470868;32;32895;-75
2021/12/04 14:00:31;;;;;;;;;;;;;;;10.25;33.35;98748.63;4474494;32;33973;-75
2021/12/04 14:02:58;;;;;;;;;;;;;;;10.10;32.70;98742.78;4452475;32;32316;-75
2021/12/04 14:05:26;;;;;;;;;;;;;;;8.97;35.19;98716.06;4467313;32;33443;-74
2021/12/04 14:07:55;;;;;;;;;;;;;;;8.61;34.30;98699.50;4452573;32;34078;-75
2021/12/04 14:10:25;;;;;;;;;;;;;;;8.54;34.81;98706.34;4469372;32;33950;-75
2021/12/04 14:12:54;;;;;;;;;;;;;;;8.28;35.88;98696.91;4464024;32;34380;-75
2021/12/04 14:15:22;;;;;;;;;;;;;;;9.39;33.29;98694.69;4465698;32;32678;-76
2021/12/04 14:18:01;;;;;;;;;;;;;;;9.24;33.75;98701.34;4465502;32;33441;-75
2021/12/04 14:20:28;;;;;;;;;;;;;;;9.49;33.68;98692.91;4469646;32;35839;-76
2021/12/04 14:22:57;;;;;;;;;;;;;;;8.84;33.89;98688.75;4480305;32;34186;-75
2021/12/04 14:25:25;;;;;;;;;;;;;;;10.04;32.66;98690.72;4477107;32;33792;-76
2021/12/04 14:27:53;;;;;;;;;;;;;;;9.79;33.39;98696.53;4462409;32;33525;-76
2021/12/04 14:30:21;;;;;;;;;;;;;;;10.38;31.69;98714.47;4464078;32;35037;-76
2021/12/04 14:32:55;;;;;;;;;;;;;;;9.05;34.04;98702.94;4467013;32;34298;-75
2021/12/04 14:35:31;;;;;;;;;;;;;;;8.22;35.64;98706.28;4463081;32;34182;-76
2021/12/04 14:37:59;;;;;;;;;;;;;;;9.02;34.70;98713.00;4456663;32;33678;-76
2021/12/04 14:40:34;;;;;;;;;;;;;;;9.33;34.33;98711.25;4466871;32;35144;-75
2021/12/04 14:43:03;;;;;;;;;;;;;;;9.12;34.79;98710.41;4451800;32;32964;-76
2021/12/04 14:45:33;;;;;;;;;;;;;;;9.25;34.73;98708.41;4466240;32;34342;-75
2021/12/04 14:48:03;;;;;;;;;;;;;;;9.19;34.53;98698.25;4466524;32;34303;-77
2021/12/04 14:50:31;;;;;;;;;;;;;;;7.79;37.05;98700.91;4454435;32;33974;-76
2021/12/04 14:52:59;;;;;;;;;;;;;;;9.48;34.77;98693.06;4469261;32;34190;-76
2021/12/04 14:55:40;;;;;;;;;;;;;;;10.15;33.66;98696.94;4461311;32;34810;-74
2021/12/04 14:58:11;;;;;;;;;;;;;;;10.01;34.01;98700.84;4458113;32;33904;-75
2021/12/04 15:00:40;;;;;;;;;;;;;;;10.70;33.27;98698.16;4452560;32;33942;-75
2021/12/04 15:03:09;;;;;;;;;;;;;;;9.94;33.56;98692.50;4472160;32;34201;-75
2021/12/04 15:05:42;;;;;;;;;;;;;;;10.78;33.09;98693.91;4467228;32;35279;-75
2021/12/04 15:08:10;;;;;;;;;;;;;;;11.15;32.56;98691.34;4467911;32;32168;-76
2021/12/04 15:10:43;;;;;;;;;;;;;;;10.90;33.11;98701.66;4451636;32;32348;-76
2021/12/04 15:13:18;;;;;;;;;;;;;;;10.88;32.65;98711.69;4465616;32;34325;-77
2021/12/04 15:15:46;;;;;;;;;;;;;;;11.25;32.19;98715.44;4469633;32;34178;-77
2021/12/04 15:18:15;;;;;;;;;;;;;;;11.16;32.56;98709.09;4452618;32;33631;-76
2021/12/04 15:20:53;;;;;;;;;;;;;;;11.10;32.47;98715.88;4475329;32;34177;-74
2021/12/04 15:23:22;;;;;;;;;;;;;;;11.00;33.03;98709.69;4465361;32;34346;-75
2021/12/04 15:25:56;;;;;;;;;;;;;;;11.59;31.97;98713.94;4466325;32;34248;-75
2021/12/04 15:28:25;;;;;;;;;;;;;;;11.70;31.60;98718.25;4464462;32;31988;-74
2021/12/04 15:30:54;;;;;;;;;;;;;;;11.54;31.99;98723.41;4454737;32;34157;-74
2021/12/04 15:33:29;;;;;;;;;;;;;;;11.81;31.58;98725.28;4468256;32;34995;-74
2021/12/04 15:36:20;;;;;;;;;;;;;;;11.96;31.57;98718.47;4467010;32;34514;-74
2021/12/04 15:38:53;;;;;;;;;;;;;;;12.01;31.47;98712.69;4469961;32;34064;-74
2021/12/04 15:41:35;;;;;;;;;;;;;;;10.53;33.39;98717.59;4467891;32;34290;-76
2021/12/04 15:47:14;;;;;;;;;;;;;;;10.69;33.53;98730.44;4455200;32;33194;-75
2021/12/04 15:55:07;;;;;;;;;;;;;;;9.29;36.27;98726.69;4456565;32;34201;-76
2021/12/04 15:57:35;;;;;;;;;;;;;;;8.96;37.18;98732.22;4466045;32;34345;-76
2021/12/04 16:00:10;;;;;;;;;;;;;;;9.37;36.36;98726.00;4453831;32;34469;-76
2021/12/04 16:02:43;;;;;;;;;;;;;;;8.93;36.62;98719.16;4453012;32;35783;-76
2021/12/04 16:05:13;;;;;;;;;;;;;;;9.07;36.62;98716.97;4464892;32;35328;-75
2021/12/04 16:07:41;;;;;;;;;;;;;;;9.25;36.25;98711.06;4472679;32;35009;-76
2021/12/04 16:10:09;;;;;;;;;;;;;;;9.16;36.61;98710.03;4464630;32;34134;-76
2021/12/04 16:12:38;;;;;;;;;;;;;;;9.92;35.40;98709.66;4453109;32;34208;-76
2021/12/04 16:15:08;;;;;;;;;;;;;;;10.33;34.70;98710.50;4449439;32;34317;-76
2021/12/04 16:17:38;;;;;;;;;;;;;;;9.70;34.86;98703.56;4451909;32;34256;-76
2021/12/04 16:20:16;;;;;;;;;;;;;;;9.86;35.58;98702.22;4465940;32;31800;-75
2021/12/04 16:22:43;;;;;;;;;;;;;;;10.23;34.73;98705.09;4458188;32;33572;-76
2021/12/04 16:25:21;;;;;;;;;;;;;;;10.50;34.56;98701.81;4466578;32;35380;-75
2021/12/04 16:28:04;;;;;;;;;;;;;;;10.13;35.45;98704.25;4477474;32;34028;-77